METAR Data
IDs: Format: Raw Decoded Include TAF

Data at: 0156 UTC 24 Oct 2019

METAR for:KBRL (Burlington/SE Iowa R, IA, US)
Text:KBRL 240153Z AUTO 35005KT 10SM CLR 11/06 A2993 RMK AO2 SLP139 T01110061
Temperature: 11.1°C ( 52°F)
Dewpoint: 6.1°C ( 43°F) [RH = 71%]
Pressure (altimeter):29.93 inches Hg (1013.6 mb) [Sea level pressure: 1013.9 mb]
Winds:from the N (350 degrees) at 6 MPH (5 knots; 2.6 m/s)
Visibility:10 or more sm (16+ km)
Ceiling:at least 12,000 feet AGL
Clouds:sky clear below 12,000 feet AGL
QC Flag:automated observation with no human augmentation